sensor_id;sensor_type;location;lat;lon;timestamp;pressure;altitude;pressure_sealevel;temperature;humidity
71194;BME280;58903;47.210;8.618;2022-11-20T00:02:28;93789.84;;;24.67;47.33
71194;BME280;58903;47.210;8.618;2022-11-20T00:04:55;93797.34;;;24.67;47.07
71194;BME280;58903;47.210;8.618;2022-11-20T00:07:22;93799.13;;;24.64;46.89
71194;BME280;58903;47.210;8.618;2022-11-20T00:09:48;93800.41;;;24.63;47.06
71194;BME280;58903;47.210;8.618;2022-11-20T00:12:15;93806.94;;;24.60;47.41
71194;BME280;58903;47.210;8.618;2022-11-20T00:14:53;93801.66;;;24.62;47.44
71194;BME280;58903;47.210;8.618;2022-11-20T00:17:19;93804.41;;;24.62;46.79
71194;BME280;58903;47.210;8.618;2022-11-20T00:20:03;93810.66;;;24.63;47.35
71194;BME280;58903;47.210;8.618;2022-11-20T00:22:30;93804.41;;;24.62;47.53
71194;BME280;58903;47.210;8.618;2022-11-20T00:24:58;93811.19;;;24.61;47.25
71194;BME280;58903;47.210;8.618;2022-11-20T00:27:25;93807.69;;;24.61;47.46
71194;BME280;58903;47.210;8.618;2022-11-20T00:30:03;93808.44;;;24.61;47.33
71194;BME280;58903;47.210;8.618;2022-11-20T00:32:38;93813.94;;;24.61;47.57
71194;BME280;58903;47.210;8.618;2022-11-20T00:35:09;93816.69;;;24.61;47.47
71194;BME280;58903;47.210;8.618;2022-11-20T00:37:55;93811.19;;;24.61;47.12
71194;BME280;58903;47.210;8.618;2022-11-20T00:40:21;93819.44;;;24.61;47.03
71194;BME280;58903;47.210;8.618;2022-11-20T00:42:48;93818.16;;;24.62;47.10
71194;BME280;58903;47.210;8.618;2022-11-20T00:45:15;93820.91;;;24.62;47.54
71194;BME280;58903;47.210;8.618;2022-11-20T00:47:41;93819.44;;;24.61;47.03
71194;BME280;58903;47.210;8.618;2022-11-20T00:50:07;93823.66;;;24.62;47.73
71194;BME280;58903;47.210;8.618;2022-11-20T00:52:33;93818.69;;;24.61;46.95
71194;BME280;58903;47.210;8.618;2022-11-20T00:55:01;93822.41;;;24.63;46.94
71194;BME280;58903;47.210;8.618;2022-11-20T00:57:32;93826.84;;;24.66;47.17
71194;BME280;58903;47.210;8.618;2022-11-20T00:59:59;93825.91;;;24.64;47.04
71194;BME280;58903;47.210;8.618;2022-11-20T01:02:32;93825.16;;;24.63;47.15
71194;BME280;58903;47.210;8.618;2022-11-20T01:04:58;93829.38;;;24.64;46.83
71194;BME280;58903;47.210;8.618;2022-11-20T01:07:26;93830.13;;;24.65;47.17
71194;BME280;58903;47.210;8.618;2022-11-20T01:10:27;93828.13;;;24.65;46.56
71194;BME280;58903;47.210;8.618;2022-11-20T01:12:58;93834.88;;;24.64;47.29
71194;BME280;58903;47.210;8.618;2022-11-20T01:16:02;93828.66;;;24.64;47.09
71194;BME280;58903;47.210;8.618;2022-11-20T01:18:38;93829.91;;;24.63;46.98
71194;BME280;58903;47.210;8.618;2022-11-20T01:21:16;93834.16;;;24.64;46.85
71194;BME280;58903;47.210;8.618;2022-11-20T01:23:51;93835.41;;;24.63;47.18
71194;BME280;58903;47.210;8.618;2022-11-20T01:26:20;93838.16;;;24.63;47.46
71194;BME280;58903;47.210;8.618;2022-11-20T01:28:47;93833.41;;;24.63;46.61
71194;BME280;58903;47.210;8.618;2022-11-20T01:31:25;93834.16;;;24.64;47.18
71194;BME280;58903;47.210;8.618;2022-11-20T01:34:06;93834.16;;;24.64;47.26
71194;BME280;58903;47.210;8.618;2022-11-20T01:36:37;93837.41;;;24.62;47.46
71194;BME280;58903;47.210;8.618;2022-11-20T01:39:36;93838.91;;;24.63;47.71
71194;BME280;58903;47.210;8.618;2022-11-20T01:42:08;93842.19;;;24.62;47.05
71194;BME280;58903;47.210;8.618;2022-11-20T01:44:57;93852.66;;;24.63;47.61
71194;BME280;58903;47.210;8.618;2022-11-20T01:50:23;93845.66;;;24.62;46.83
71194;BME280;58903;47.210;8.618;2022-11-20T01:52:59;93844.94;;;24.62;47.49
71194;BME280;58903;47.210;8.618;2022-11-20T01:55:34;93846.19;;;24.61;47.25
71194;BME280;58903;47.210;8.618;2022-11-20T01:58:28;93846.19;;;24.61;47.38
71194;BME280;58903;47.210;8.618;2022-11-20T02:01:04;93846.94;;;24.61;46.80
71194;BME280;58903;47.210;8.618;2022-11-20T02:03:32;93844.94;;;24.62;47.24
71194;BME280;58903;47.210;8.618;2022-11-20T02:06:10;93852.44;;;24.61;46.84
71194;BME280;58903;47.210;8.618;2022-11-20T02:08:46;93844.44;;;24.58;46.90
71194;BME280;58903;47.210;8.618;2022-11-20T02:11:15;93845.44;;;24.60;47.24
71194;BME280;58903;47.210;8.618;2022-11-20T02:14:00;93839.94;;;24.60;46.74
71194;BME280;58903;47.210;8.618;2022-11-20T02:16:32;93837.69;;;24.59;47.24
71194;BME280;58903;47.210;8.618;2022-11-20T02:19:07;93841.19;;;24.59;46.91
71194;BME280;58903;47.210;8.618;2022-11-20T02:24:23;93843.19;;;24.59;46.97
71194;BME280;58903;47.210;8.618;2022-11-20T02:27:02;93844.66;;;24.60;47.30
71194;BME280;58903;47.210;8.618;2022-11-20T02:29:39;93845.19;;;24.58;47.11
71194;BME280;58903;47.210;8.618;2022-11-20T02:32:20;93845.44;;;24.60;47.12
71194;BME280;58903;47.210;8.618;2022-11-20T02:34:48;93847.94;;;24.58;47.27
71194;BME280;58903;47.210;8.618;2022-11-20T02:37:14;93848.69;;;24.59;46.99
71194;BME280;58903;47.210;8.618;2022-11-20T02:39:41;93850.69;;;24.58;46.65
71194;BME280;58903;47.210;8.618;2022-11-20T02:42:10;93850.94;;;24.60;46.70
71194;BME280;58903;47.210;8.618;2022-11-20T02:44:38;93852.19;;;24.59;47.26
71194;BME280;58903;47.210;8.618;2022-11-20T02:47:41;93852.19;;;24.59;47.61
71194;BME280;58903;47.210;8.618;2022-11-20T02:50:12;93841.19;;;24.59;47.16
71194;BME280;58903;47.210;8.618;2022-11-20T02:52:41;93846.47;;;24.57;47.40
71194;BME280;58903;47.210;8.618;2022-11-20T02:55:09;93844.66;;;24.60;46.77
71194;BME280;58903;47.210;8.618;2022-11-20T02:57:36;93842.69;;;24.60;47.29
71194;BME280;58903;47.210;8.618;2022-11-20T03:00:05;93843.94;;;24.59;46.98
71194;BME280;58903;47.210;8.618;2022-11-20T03:02:34;93845.19;;;24.58;47.32
71194;BME280;58903;47.210;8.618;2022-11-20T03:05:00;93843.94;;;24.59;46.97
71194;BME280;58903;47.210;8.618;2022-11-20T03:07:26;93846.69;;;24.59;47.23
71194;BME280;58903;47.210;8.618;2022-11-20T03:09:52;93845.19;;;24.58;46.81
71194;BME280;58903;47.210;8.618;2022-11-20T03:12:30;93840.97;;;24.57;47.44
71194;BME280;58903;47.210;8.618;2022-11-20T03:15:08;93843.19;;;24.59;46.75
71194;BME280;58903;47.210;8.618;2022-11-20T03:17:39;93841.19;;;24.59;47.20
71194;BME280;58903;47.210;8.618;2022-11-20T03:20:15;93839.47;;;24.56;46.91
71194;BME280;58903;47.210;8.618;2022-11-20T03:23:00;93840.97;;;24.57;47.06
71194;BME280;58903;47.210;8.618;2022-11-20T03:25:33;93842.44;;;24.58;46.78
71194;BME280;58903;47.210;8.618;2022-11-20T03:28:00;93843.94;;;24.59;46.66
71194;BME280;58903;47.210;8.618;2022-11-20T03:30:26;93849.44;;;24.59;47.57
71194;BME280;58903;47.210;8.618;2022-11-20T03:32:53;93846.69;;;24.59;46.89
71194;BME280;58903;47.210;8.618;2022-11-20T03:35:30;93840.69;;;24.61;46.70
71194;BME280;58903;47.210;8.618;2022-11-20T03:37:57;93844.66;;;24.60;47.15
71194;BME280;58903;47.210;8.618;2022-11-20T03:40:25;93841.19;;;24.59;47.21
71194;BME280;58903;47.210;8.618;2022-11-20T03:42:52;93850.16;;;24.60;47.01
71194;BME280;58903;47.210;8.618;2022-11-20T03:45:25;93845.44;;;24.60;46.71
71194;BME280;58903;47.210;8.618;2022-11-20T03:48:01;93846.69;;;24.59;46.49
71194;BME280;58903;47.210;8.618;2022-11-20T03:50:27;93846.47;;;24.57;46.69
71194;BME280;58903;47.210;8.618;2022-11-20T03:52:55;93851.44;;;24.59;47.26
71194;BME280;58903;47.210;8.618;2022-11-20T03:55:21;93851.44;;;24.59;46.85
71194;BME280;58903;47.210;8.618;2022-11-20T03:58:14;93855.66;;;24.60;46.55
71194;BME280;58903;47.210;8.618;2022-11-20T04:01:23;93853.44;;;24.58;47.29
71194;BME280;58903;47.210;8.618;2022-11-20T04:03:53;93851.22;;;24.57;46.42
71194;BME280;58903;47.210;8.618;2022-11-20T04:06:22;93858.94;;;24.58;47.09
71194;BME280;58903;47.210;8.618;2022-11-20T04:08:58;93853.44;;;24.58;46.64
71194;BME280;58903;47.210;8.618;2022-11-20T04:11:28;93853.44;;;24.58;47.14
71194;BME280;58903;47.210;8.618;2022-11-20T04:13:59;93862.44;;;24.59;46.68
71194;BME280;58903;47.210;8.618;2022-11-20T04:16:35;93864.44;;;24.58;47.04
71194;BME280;58903;47.210;8.618;2022-11-20T04:19:15;93867.19;;;24.58;46.61
71194;BME280;58903;47.210;8.618;2022-11-20T04:21:42;93862.97;;;24.57;46.66
71194;BME280;58903;47.210;8.618;2022-11-20T04:24:10;93859.69;;;24.59;47.13
71194;BME280;58903;47.210;8.618;2022-11-20T04:26:41;93852.69;;;24.58;47.06
71194;BME280;58903;47.210;8.618;2022-11-20T04:29:10;93848.25;;;24.55;47.08
71194;BME280;58903;47.210;8.618;2022-11-20T04:31:38;93848.47;;;24.57;46.84
71194;BME280;58903;47.210;8.618;2022-11-20T04:34:06;93855.97;;;24.56;47.42
71194;BME280;58903;47.210;8.618;2022-11-20T04:36:34;93853.22;;;24.56;46.88
71194;BME280;58903;47.210;8.618;2022-11-20T04:39:04;93860.66;;;24.61;46.83
71194;BME280;58903;47.210;8.618;2022-11-20T04:41:34;93853.91;;;24.62;46.50
71194;BME280;58903;47.210;8.618;2022-11-20T04:44:04;93857.94;;;24.61;47.11
71194;BME280;58903;47.210;8.618;2022-11-20T04:46:34;93855.66;;;24.60;47.05
71194;BME280;58903;47.210;8.618;2022-11-20T04:49:01;93860.44;;;24.59;46.87
71194;BME280;58903;47.210;8.618;2022-11-20T04:51:29;93850.69;;;24.58;46.81
71194;BME280;58903;47.210;8.618;2022-11-20T04:53:55;93852.69;;;24.58;46.64
71194;BME280;58903;47.210;8.618;2022-11-20T04:56:27;93849.44;;;24.59;46.38
71194;BME280;58903;47.210;8.618;2022-11-20T04:58:56;93852.69;;;24.58;47.24
71194;BME280;58903;47.210;8.618;2022-11-20T05:01:29;93849.72;;;24.56;46.88
71194;BME280;58903;47.210;8.618;2022-11-20T05:04:01;93847.72;;;24.56;46.50
71194;BME280;58903;47.210;8.618;2022-11-20T05:06:33;93851.97;;;24.57;47.01
71194;BME280;58903;47.210;8.618;2022-11-20T05:09:00;93844.97;;;24.56;47.11
71194;BME280;58903;47.210;8.618;2022-11-20T05:11:35;93853.44;;;24.58;46.32
71194;BME280;58903;47.210;8.618;2022-11-20T05:14:04;93856.44;;;24.60;46.50
71194;BME280;58903;47.210;8.618;2022-11-20T05:16:34;93848.69;;;24.59;46.52
71194;BME280;58903;47.210;8.618;2022-11-20T05:19:00;93853.69;;;24.60;47.03
71194;BME280;58903;47.210;8.618;2022-11-20T05:21:26;93855.19;;;24.61;46.54
71194;BME280;58903;47.210;8.618;2022-11-20T05:24:02;93852.44;;;24.61;46.71
71194;BME280;58903;47.210;8.618;2022-11-20T05:26:29;93855.19;;;24.61;46.99
71194;BME280;58903;47.210;8.618;2022-11-20T05:28:57;93852.44;;;24.61;47.17
71194;BME280;58903;47.210;8.618;2022-11-20T05:31:26;93842.91;;;24.62;46.83
71194;BME280;58903;47.210;8.618;2022-11-20T05:33:56;93863.66;;;24.63;46.41
71194;BME280;58903;47.210;8.618;2022-11-20T05:36:23;93858.16;;;24.63;46.63
71194;BME280;58903;47.210;8.618;2022-11-20T05:38:53;93860.91;;;24.63;46.89
71194;BME280;58903;47.210;8.618;2022-11-20T05:41:30;93863.13;;;24.65;46.64
71194;BME280;58903;47.210;8.618;2022-11-20T05:43:57;93865.66;;;24.63;46.92
71194;BME280;58903;47.210;8.618;2022-11-20T05:46:25;93856.44;;;24.60;46.43
71194;BME280;58903;47.210;8.618;2022-11-20T05:48:57;93862.16;;;24.62;46.46
71194;BME280;58903;47.210;8.618;2022-11-20T05:51:27;93864.19;;;24.62;46.73
71194;BME280;58903;47.210;8.618;2022-11-20T05:53:58;93857.19;;;24.61;46.53
71194;BME280;58903;47.210;8.618;2022-11-20T05:56:26;93868.16;;;24.61;46.62
71194;BME280;58903;47.210;8.618;2022-11-20T05:58:55;93855.66;;;24.60;46.59
71194;BME280;58903;47.210;8.618;2022-11-20T06:01:30;93863.91;;;24.60;46.75
71194;BME280;58903;47.210;8.618;2022-11-20T06:03:59;93882.91;;;24.63;46.28
71194;BME280;58903;47.210;8.618;2022-11-20T06:06:29;93874.41;;;24.61;46.50
71194;BME280;58903;47.210;8.618;2022-11-20T06:08:57;93878.66;;;24.62;46.64
71194;BME280;58903;47.210;8.618;2022-11-20T06:11:25;93878.16;;;24.64;46.82
71194;BME280;58903;47.210;8.618;2022-11-20T06:13:52;93878.16;;;24.64;46.68
71194;BME280;58903;47.210;8.618;2022-11-20T06:16:19;93876.88;;;24.65;46.26
71194;BME280;58903;47.210;8.618;2022-11-20T06:18:46;93868.63;;;24.65;46.14
71194;BME280;58903;47.210;8.618;2022-11-20T06:21:15;93880.38;;;24.65;46.74
71194;BME280;58903;47.210;8.618;2022-11-20T06:23:41;93878.88;;;24.64;46.84
71194;BME280;58903;47.210;8.618;2022-11-20T06:26:15;93874.88;;;24.65;46.78
71194;BME280;58903;47.210;8.618;2022-11-20T06:28:46;93877.41;;;24.63;46.21
71194;BME280;58903;47.210;8.618;2022-11-20T06:31:17;93878.88;;;24.64;46.86
71194;BME280;58903;47.210;8.618;2022-11-20T06:33:43;93876.13;;;24.64;46.37
71194;BME280;58903;47.210;8.618;2022-11-20T06:36:14;93873.59;;;24.66;45.97
71194;BME280;58903;47.210;8.618;2022-11-20T06:38:41;93879.84;;;24.67;46.22
71194;BME280;58903;47.210;8.618;2022-11-20T06:41:15;93881.84;;;24.66;45.60
71194;BME280;58903;47.210;8.618;2022-11-20T06:43:42;93876.56;;;24.68;44.77
71194;BME280;58903;47.210;8.618;2022-11-20T06:46:13;93881.13;;;24.66;45.63
71194;BME280;58903;47.210;8.618;2022-11-20T06:48:42;93877.84;;;24.67;45.63
71194;BME280;58903;47.210;8.618;2022-11-20T06:51:09;93884.81;;;24.68;45.72
71194;BME280;58903;47.210;8.618;2022-11-20T06:53:35;93878.88;;;24.64;45.93
71194;BME280;58903;47.210;8.618;2022-11-20T06:56:05;93883.66;;;24.64;45.96
71194;BME280;58903;47.210;8.618;2022-11-20T06:58:35;93889.16;;;24.64;46.11
71194;BME280;58903;47.210;8.618;2022-11-20T07:01:07;93891.16;;;24.63;46.11
71194;BME280;58903;47.210;8.618;2022-11-20T07:03:35;93902.16;;;24.63;45.91
71194;BME280;58903;47.210;8.618;2022-11-20T07:06:03;93904.91;;;24.63;46.32
71194;BME280;58903;47.210;8.618;2022-11-20T07:09:07;93911.66;;;24.62;46.27
71194;BME280;58903;47.210;8.618;2022-11-20T07:11:47;93917.13;;;24.62;46.24
71194;BME280;58903;47.210;8.618;2022-11-20T07:14:22;93914.91;;;24.61;46.64
71194;BME280;58903;47.210;8.618;2022-11-20T07:17:09;93923.16;;;24.61;45.98
71194;BME280;58903;47.210;8.618;2022-11-20T07:19:35;93932.16;;;24.61;45.88
71194;BME280;58903;47.210;8.618;2022-11-20T07:22:01;93933.63;;;24.62;46.31
71194;BME280;58903;47.210;8.618;2022-11-20T07:24:47;93940.41;;;24.61;46.29
71194;BME280;58903;47.210;8.618;2022-11-20T07:27:13;93934.38;;;24.63;46.28
71194;BME280;58903;47.210;8.618;2022-11-20T07:29:38;93943.63;;;24.65;46.68
71194;BME280;58903;47.210;8.618;2022-11-20T07:32:06;93940.88;;;24.65;46.34
71194;BME280;58903;47.210;8.618;2022-11-20T07:34:33;93944.31;;;24.71;45.90
71194;BME280;58903;47.210;8.618;2022-11-20T07:37:08;93935.28;;;24.77;46.19
71194;BME280;58903;47.210;8.618;2022-11-20T07:39:34;93937.00;;;24.80;45.52
71194;BME280;58903;47.210;8.618;2022-11-20T07:42:02;93944.22;;;24.83;45.58
71194;BME280;58903;47.210;8.618;2022-11-20T07:44:35;93940.66;;;24.88;45.40
71194;BME280;58903;47.210;8.618;2022-11-20T07:47:02;93948.19;;;24.87;45.86
71194;BME280;58903;47.210;8.618;2022-11-20T07:49:34;93943.66;;;24.90;45.11
71194;BME280;58903;47.210;8.618;2022-11-20T07:52:00;93940.91;;;24.90;45.50
71194;BME280;58903;47.210;8.618;2022-11-20T07:54:26;93939.63;;;24.91;45.87
71194;BME280;58903;47.210;8.618;2022-11-20T07:56:53;93937.16;;;24.87;45.17
71194;BME280;58903;47.210;8.618;2022-11-20T07:59:22;93933.66;;;24.87;45.29
71194;BME280;58903;47.210;8.618;2022-11-20T08:01:49;93927.16;;;24.90;45.59
71194;BME280;58903;47.210;8.618;2022-11-20T08:04:25;93935.16;;;24.88;44.73
71194;BME280;58903;47.210;8.618;2022-11-20T08:07:04;93931.16;;;24.89;45.60
71194;BME280;58903;47.210;8.618;2022-11-20T08:09:30;93936.88;;;24.91;44.68
71194;BME280;58903;47.210;8.618;2022-11-20T08:11:57;93939.84;;;24.93;45.25
71194;BME280;58903;47.210;8.618;2022-11-20T08:14:49;93945.56;;;24.95;45.24
71194;BME280;58903;47.210;8.618;2022-11-20T08:17:18;93951.34;;;24.97;45.04
71194;BME280;58903;47.210;8.618;2022-11-20T08:19:43;93948.84;;;24.93;45.20
71194;BME280;58903;47.210;8.618;2022-11-20T08:22:09;93960.31;;;24.97;45.50
71194;BME280;58903;47.210;8.618;2022-11-20T08:24:37;93952.81;;;24.98;45.06
71194;BME280;58903;47.210;8.618;2022-11-20T08:27:03;93949.31;;;24.97;44.67
71194;BME280;58903;47.210;8.618;2022-11-20T08:29:29;93951.84;;;24.95;44.89
71194;BME280;58903;47.210;8.618;2022-11-20T08:31:55;93949.38;;;24.92;45.20
71194;BME280;58903;47.210;8.618;2022-11-20T08:34:21;93952.69;;;24.85;45.51
71194;BME280;58903;47.210;8.618;2022-11-20T08:36:49;93960.44;;;24.86;45.03
71194;BME280;58903;47.210;8.618;2022-11-20T08:39:47;93954.69;;;24.84;45.88
71194;BME280;58903;47.210;8.618;2022-11-20T08:42:28;93966.22;;;24.83;45.24
71194;BME280;58903;47.210;8.618;2022-11-20T08:45:13;93961.75;;;24.80;45.29
71194;BME280;58903;47.210;8.618;2022-11-20T08:47:40;93960.78;;;24.77;45.23
71194;BME280;58903;47.210;8.618;2022-11-20T08:50:07;93969.03;;;24.77;45.76
71194;BME280;58903;47.210;8.618;2022-11-20T08:52:33;93975.78;;;24.76;46.04
71194;BME280;58903;47.210;8.618;2022-11-20T08:55:01;93971.53;;;24.75;45.95
71194;BME280;58903;47.210;8.618;2022-11-20T08:57:31;93971.28;;;24.79;45.92
71194;BME280;58903;47.210;8.618;2022-11-20T09:00:07;93970.75;;;24.80;45.57
71194;BME280;58903;47.210;8.618;2022-11-20T09:02:35;93974.53;;;24.77;45.62
71194;BME280;58903;47.210;8.618;2022-11-20T09:05:10;93970.28;;;24.76;46.18
71194;BME280;58903;47.210;8.618;2022-11-20T09:07:37;93968.28;;;24.77;46.13
71194;BME280;58903;47.210;8.618;2022-11-20T09:10:03;93975.28;;;24.78;46.58
71194;BME280;58903;47.210;8.618;2022-11-20T09:12:29;93966.78;;;24.76;46.88
71194;BME280;58903;47.210;8.618;2022-11-20T09:14:57;93956.31;;;24.68;46.89
71194;BME280;58903;47.210;8.618;2022-11-20T09:17:23;93966.31;;;24.71;47.03
71194;BME280;58903;47.210;8.618;2022-11-20T09:19:49;93963.31;;;24.69;46.92
71194;BME280;58903;47.210;8.618;2022-11-20T09:22:15;93955.59;;;24.68;46.93
71194;BME280;58903;47.210;8.618;2022-11-20T09:24:43;93966.59;;;24.68;46.95
71194;BME280;58903;47.210;8.618;2022-11-20T09:27:15;93960.06;;;24.71;47.15
71194;BME280;58903;47.210;8.618;2022-11-20T09:30:13;93953.81;;;24.70;47.35
71194;BME280;58903;47.210;8.618;2022-11-20T09:32:42;93960.06;;;24.71;46.47
71194;BME280;58903;47.210;8.618;2022-11-20T09:35:26;93962.09;;;24.70;47.10
71194;BME280;58903;47.210;8.618;2022-11-20T09:37:54;93962.78;;;24.77;46.96
71194;BME280;58903;47.210;8.618;2022-11-20T09:40:32;93958.28;;;24.73;47.43
71194;BME280;58903;47.210;8.618;2022-11-20T09:43:20;93963.78;;;24.73;47.50
71194;BME280;58903;47.210;8.618;2022-11-20T09:46:14;93969.28;;;24.73;46.99
71194;BME280;58903;47.210;8.618;2022-11-20T09:56:44;93967.81;;;24.73;47.62
71194;BME280;58903;47.210;8.618;2022-11-20T09:59:40;93975.53;;;24.74;48.11
71194;BME280;58903;47.210;8.618;2022-11-20T10:04:53;93967.00;;;24.78;47.54
71194;BME280;58903;47.210;8.618;2022-11-20T10:07:32;93971.78;;;24.77;47.37
71194;BME280;58903;47.210;8.618;2022-11-20T10:10:16;93964.25;;;24.78;47.01
71194;BME280;58903;47.210;8.618;2022-11-20T10:13:13;93965.03;;;24.78;47.14
71194;BME280;58903;47.210;8.618;2022-11-20T10:18:57;93960.28;;;24.79;47.73
71194;BME280;58903;47.210;8.618;2022-11-20T10:21:48;93958.75;;;24.78;46.92
71194;BME280;58903;47.210;8.618;2022-11-20T10:24:41;93960.53;;;24.75;47.87
71194;BME280;58903;47.210;8.618;2022-11-20T10:29:43;93956.19;;;24.85;46.99
71194;BME280;58903;47.210;8.618;2022-11-20T10:32:32;93957.09;;;24.93;46.85
71194;BME280;58903;47.210;8.618;2022-11-20T10:38:43;93958.59;;;24.94;46.96
71194;BME280;58903;47.210;8.618;2022-11-20T10:41:20;93961.63;;;24.91;47.02
71194;BME280;58903;47.210;8.618;2022-11-20T10:44:15;93961.94;;;24.87;47.22
71194;BME280;58903;47.210;8.618;2022-11-20T10:47:13;93953.16;;;24.89;47.25
71194;BME280;58903;47.210;8.618;2022-11-20T10:49:42;93951.91;;;24.90;47.44
71194;BME280;58903;47.210;8.618;2022-11-20T10:55:29;93943.91;;;24.86;47.60
71194;BME280;58903;47.210;8.618;2022-11-20T11:00:37;93945.66;;;24.89;47.88
71194;BME280;58903;47.210;8.618;2022-11-20T11:03:23;93946.63;;;24.92;47.57
71194;BME280;58903;47.210;8.618;2022-11-20T11:06:03;93939.34;;;24.94;47.29
71194;BME280;58903;47.210;8.618;2022-11-20T11:08:39;93931.81;;;24.95;47.43
71194;BME280;58903;47.210;8.618;2022-11-20T11:11:27;93923.34;;;24.93;47.74
71194;BME280;58903;47.210;8.618;2022-11-20T11:14:29;93925.06;;;24.96;46.96
71194;BME280;58903;47.210;8.618;2022-11-20T11:16:57;93912.81;;;24.97;47.84
71194;BME280;58903;47.210;8.618;2022-11-20T11:19:24;93908.03;;;24.97;47.51
71194;BME280;58903;47.210;8.618;2022-11-20T11:21:56;93902.03;;;24.99;47.92
71194;BME280;58903;47.210;8.618;2022-11-20T11:24:29;93904.25;;;25.00;47.43
71194;BME280;58903;47.210;8.618;2022-11-20T11:27:04;93898.00;;;25.00;48.01
71194;BME280;58903;47.210;8.618;2022-11-20T11:29:36;93893.78;;;24.99;47.72
71194;BME280;58903;47.210;8.618;2022-11-20T11:32:28;93902.25;;;25.01;48.19
71194;BME280;58903;47.210;8.618;2022-11-20T11:35:22;93892.72;;;25.02;48.48
71194;BME280;58903;47.210;8.618;2022-11-20T11:37:49;93884.47;;;25.02;47.99
71194;BME280;58903;47.210;8.618;2022-11-20T11:40:18;93884.47;;;25.02;48.13
71194;BME280;58903;47.210;8.618;2022-11-20T11:42:58;93895.19;;;25.05;48.52
71194;BME280;58903;47.210;8.618;2022-11-20T11:45:28;93894.38;;;25.10;48.10
71194;BME280;58903;47.210;8.618;2022-11-20T11:48:03;93885.84;;;25.14;48.61
71194;BME280;58903;47.210;8.618;2022-11-20T11:50:29;93881.31;;;25.16;48.50
71194;BME280;58903;47.210;8.618;2022-11-20T12:04:21;93877.19;;;25.23;47.56
71194;BME280;58903;47.210;8.618;2022-11-20T12:07:02;93872.97;;;25.22;47.25
71194;BME280;58903;47.210;8.618;2022-11-20T12:09:43;93863.44;;;25.23;47.08
71194;BME280;58903;47.210;8.618;2022-11-20T12:12:31;93864.41;;;25.25;47.56
71194;BME280;58903;47.210;8.618;2022-11-20T12:14:58;93861.88;;;25.27;47.56
71194;BME280;58903;47.210;8.618;2022-11-20T12:17:24;93856.66;;;25.24;47.64
71194;BME280;58903;47.210;8.618;2022-11-20T12:19:53;93855.16;;;25.23;47.47
71194;BME280;58903;47.210;8.618;2022-11-20T12:30:27;93850.13;;;25.27;47.19
71194;BME280;58903;47.210;8.618;2022-11-20T12:33:27;93836.59;;;25.29;46.98
71194;BME280;58903;47.210;8.618;2022-11-20T12:36:32;93830.88;;;25.27;47.12
71194;BME280;58903;47.210;8.618;2022-11-20T12:56:39;93815.53;;;25.31;47.10
71194;BME280;58903;47.210;8.618;2022-11-20T13:02:52;93803.69;;;25.36;46.93
71194;BME280;58903;47.210;8.618;2022-11-20T13:05:31;93802.22;;;25.35;46.41
71194;BME280;58903;47.210;8.618;2022-11-20T13:08:20;93789.09;;;25.41;46.69
71194;BME280;58903;47.210;8.618;2022-11-20T13:10:50;93795.06;;;25.46;46.21
71194;BME280;58903;47.210;8.618;2022-11-20T13:19:13;93773.19;;;25.53;45.98
71194;BME280;58903;47.210;8.618;2022-11-20T13:21:42;93769.38;;;25.56;46.56
71194;BME280;58903;47.210;8.618;2022-11-20T13:29:32;93778.75;;;25.66;45.95
71194;BME280;58903;47.210;8.618;2022-11-20T13:32:29;93768.44;;;25.67;46.81
71194;BME280;58903;47.210;8.618;2022-11-20T13:35:08;93776.41;;;25.70;46.00
71194;BME280;58903;47.210;8.618;2022-11-20T13:37:40;93773.66;;;25.70;46.34
71194;BME280;58903;47.210;8.618;2022-11-20T13:42:54;93765.81;;;25.74;46.35
71194;BME280;58903;47.210;8.618;2022-11-20T13:45:25;93762.25;;;25.79;46.26
71194;BME280;58903;47.210;8.618;2022-11-20T13:47:54;93756.94;;;25.81;46.40
71194;BME280;58903;47.210;8.618;2022-11-20T13:50:40;93749.09;;;25.85;45.83
71194;BME280;58903;47.210;8.618;2022-11-20T14:01:31;93743.06;;;26.00;46.01
71194;BME280;58903;47.210;8.618;2022-11-20T14:04:06;93735.75;;;26.02;45.22
71194;BME280;58903;47.210;8.618;2022-11-20T14:06:41;93733.97;;;26.05;45.35
71194;BME280;58903;47.210;8.618;2022-11-20T14:09:24;93736.44;;;26.08;45.23
71194;BME280;58903;47.210;8.618;2022-11-20T14:12:15;93728.38;;;26.10;45.96
71194;BME280;58903;47.210;8.618;2022-11-20T14:14:49;93735.78;;;26.15;45.27
71194;BME280;58903;47.210;8.618;2022-11-20T14:19:51;93722.78;;;26.16;45.61
71194;BME280;58903;47.210;8.618;2022-11-20T14:22:20;93725.72;;;26.18;45.03
71194;BME280;58903;47.210;8.618;2022-11-20T14:25:06;93723.41;;;26.22;44.83
71194;BME280;58903;47.210;8.618;2022-11-20T14:27:51;93717.34;;;26.24;44.18
71194;BME280;58903;47.210;8.618;2022-11-20T14:30:23;93717.34;;;26.24;44.57
71194;BME280;58903;47.210;8.618;2022-11-20T14:32:54;93711.53;;;26.27;44.74
71194;BME280;58903;47.210;8.618;2022-11-20T14:35:27;93718.50;;;26.28;44.87
71194;BME280;58903;47.210;8.618;2022-11-20T14:38:25;93719.59;;;26.25;45.05
71194;BME280;58903;47.210;8.618;2022-11-20T14:40:53;93719.88;;;26.22;45.02
71194;BME280;58903;47.210;8.618;2022-11-20T14:43:25;93722.44;;;26.20;45.12
71194;BME280;58903;47.210;8.618;2022-11-20T14:46:07;93717.97;;;26.16;44.61
71194;BME280;58903;47.210;8.618;2022-11-20T14:48:41;93711.31;;;26.12;44.71
71194;BME280;58903;47.210;8.618;2022-11-20T14:51:11;93705.06;;;26.11;44.69
71194;BME280;58903;47.210;8.618;2022-11-20T14:53:37;93709.63;;;26.09;44.83
71194;BME280;58903;47.210;8.618;2022-11-20T14:56:03;93715.34;;;26.11;44.76
71194;BME280;58903;47.210;8.618;2022-11-20T14:58:33;93712.38;;;26.09;45.27
71194;BME280;58903;47.210;8.618;2022-11-20T15:01:04;93707.59;;;26.09;45.24
71194;BME280;58903;47.210;8.618;2022-11-20T15:03:35;93708.03;;;26.13;44.48
71194;BME280;58903;47.210;8.618;2022-11-20T15:06:07;93709.50;;;26.14;44.49
71194;BME280;58903;47.210;8.618;2022-11-20T15:08:37;93708.25;;;26.15;44.53
71194;BME280;58903;47.210;8.618;2022-11-20T15:11:18;93706.53;;;26.12;45.20